Time;durP1;ratioP1;P1;durP2;ratioP2;P2;SDS_P1;SDS_P2;PMS_P1;PMS_P2;Temp;Humidity;BMP_temperature;BMP_pressure;BME280_temperature;BME280_humidity;BME280_pressure;Samples;Min_cycle;Max_cycle;Signal;HPM_P1;HPM_P2
2022/10/03 00:03:17;;;;;;;;;;;;;;;;;;;;;
2022/10/03 00:06:53;;;;;;;7.20;1.40;;;;;;;10.84;74.38;98980.90;105902;1278;25510;-81
2022/10/03 00:09:38;;;;;;;12.00;1.60;;;;;;;10.84;74.51;98974.97;105569;1284;22590;-86
2022/10/03 00:16:35;;;;;;;;;;;;;;;;;;;;;
2022/10/03 00:19:42;;;;;;;9.70;1.50;;;;;;;10.81;74.73;98970.54;105728;1281;25288;-82
2022/10/03 00:23:00;;;;;;;9.00;1.20;;;;;;;10.78;74.73;98971.71;105708;1281;24001;-84
2022/10/03 00:26:32;;;;;;;9.20;1.30;;;;;;;10.75;74.60;98973.01;105730;1281;22722;-81
2022/10/03 00:30:01;;;;;;;;;;;;;;;;;;;;;
2022/10/03 00:33:21;;;;;;;;;;;;;;;;;;;;;
2022/10/03 00:37:13;;;;;;;7.30;1.30;;;;;;;10.78;74.72;98980.19;105739;1280;22568;-84
2022/10/03 00:40:35;;;;;;;;;;;;;;;;;;;;;
2022/10/03 00:43:32;;;;;;;6.80;0.90;;;;;;;10.87;74.79;98979.95;105672;1282;22925;-82
2022/10/03 00:47:24;;;;;;;;;;;;;;;;;;;;;
2022/10/03 00:50:16;;;;;;;12.90;1.70;;;;;;;10.93;74.82;98978.74;105878;1280;23215;-82
2022/10/03 00:53:41;;;;;;;9.20;1.50;;;;;;;10.94;74.75;98981.56;105827;1280;24412;-81
2022/10/03 00:57:49;;;;;;;;;;;;;;;;;;;;;
2022/10/03 01:00:34;;;;;;;10.30;1.10;;;;;;;10.94;74.72;98986.72;104464;1292;22638;-86
2022/10/03 01:04:04;;;;;;;13.30;1.40;;;;;;;10.94;74.70;98989.17;104297;1293;23933;-82
2022/10/03 01:07:02;;;;;;;8.40;1.30;;;;;;;10.95;74.76;98979.55;104422;1292;24811;-83
2022/10/03 01:10:38;;;;;;;10.40;2.10;;;;;;;10.92;74.81;98981.29;104281;1293;25467;-80
2022/10/03 01:13:46;;;;;;;7.90;1.40;;;;;;;10.90;74.87;98986.30;104447;1291;22548;-85
2022/10/03 01:16:22;;;;;;;11.40;1.40;;;;;;;10.88;74.87;98984.47;104464;1292;22556;-82
2022/10/03 01:19:12;;;;;;;7.70;1.10;;;;;;;10.87;74.82;98990.61;104445;1291;24041;-81
2022/10/03 01:22:03;;;;;;;11.80;1.60;;;;;;;10.86;74.92;98988.91;104438;1292;25238;-83
2022/10/03 01:24:51;;;;;;;10.20;1.40;;;;;;;10.85;74.76;98995.23;104339;1294;22640;-84
2022/10/03 01:30:51;;;;;;;9.80;1.40;;;;;;;10.87;75.04;98997.75;104917;1287;22563;-85
2022/10/03 01:33:31;;;;;;;11.70;2.10;;;;;;;10.87;75.07;98998.11;105739;1280;24247;-85
2022/10/03 01:37:22;;;;;;;;;;;;;;;;;;;;;
2022/10/03 01:40:39;;;;;;;10.20;1.50;;;;;;;10.83;74.92;98998.70;106369;1274;22744;-81
2022/10/03 01:43:24;;;;;;;10.60;1.60;;;;;;;10.83;74.86;99004.48;105993;1273;22618;-82
2022/10/03 01:46:15;;;;;;;9.70;1.90;;;;;;;10.83;75.04;99002.09;105899;1274;22541;-85
2022/10/03 01:49:53;;;;;;;;;;;;;;;;;;;;;
2022/10/03 01:52:48;;;;;;;10.80;1.60;;;;;;;10.77;75.00;99000.83;105824;1280;24292;-84
2022/10/03 01:55:38;;;;;;;10.00;1.60;;;;;;;10.76;74.99;99013.20;105749;1280;22592;-81
2022/10/03 01:58:11;;;;;;;9.10;2.00;;;;;;;10.75;75.02;99009.69;105765;1280;22553;-82
2022/10/03 02:01:11;;;;;;;8.30;2.30;;;;;;;10.74;75.05;99010.80;105732;1280;22565;-86
2022/10/03 02:03:46;;;;;;;12.30;1.60;;;;;;;10.74;75.09;99009.19;105794;1280;26302;-82
2022/10/03 02:06:42;;;;;;;7.60;1.20;;;;;;;10.73;75.10;99009.61;105805;1280;22541;-86
2022/10/03 02:09:43;;;;;;;8.40;1.70;;;;;;;10.74;75.02;99009.90;105647;1281;22807;-82
2022/10/03 02:12:38;;;;;;;9.20;1.90;;;;;;;10.75;75.14;99011.80;105774;1280;24517;-82
2022/10/03 02:15:35;;;;;;;7.90;1.70;;;;;;;10.74;75.26;99011.30;105782;1280;23177;-82
2022/10/03 02:18:22;;;;;;;7.70;1.20;;;;;;;10.75;75.12;99010.75;105386;1280;22583;-81
2022/10/03 02:21:16;;;;;;;11.00;1.90;;;;;;;10.74;75.11;99010.05;105829;1280;22551;-87
2022/10/03 02:23:50;;;;;;;10.00;2.40;;;;;;;10.74;75.09;99006.50;105827;1280;25287;-81
2022/10/03 02:26:45;;;;;;;6.60;1.20;;;;;;;10.74;75.02;99014.93;105719;1280;24215;-83
2022/10/03 02:29:29;;;;;;;7.60;1.40;;;;;;;10.72;75.03;99013.46;106381;1274;22615;-86
2022/10/03 02:32:52;;;;;;;12.40;1.60;;;;;;;10.70;75.23;99017.13;106114;1274;22545;-86
2022/10/03 02:36:07;;;;;;;;;;;;;;;;;;;;;
2022/10/03 02:38:44;;;;;;;13.90;1.90;;;;;;;10.69;75.21;99024.55;106343;1274;25282;-82
2022/10/03 02:41:54;;;;;;;8.30;1.50;;;;;;;10.69;75.12;99022.95;106088;1274;22600;-81
2022/10/03 02:45:22;;;;;;;6.70;1.40;;;;;;;10.69;75.15;99028.13;106285;1274;22474;-85
2022/10/03 02:49:09;;;;;;;;;;;;;;;;;;;;;
2022/10/03 02:51:53;;;;;;;10.50;2.10;;;;;;;10.64;75.22;99027.94;105722;1280;22613;-83
2022/10/03 02:55:29;;;;;;;;;;;;;;;;;;;;;
2022/10/03 02:58:29;;;;;;;8.50;1.50;;;;;;;10.61;75.29;99032.77;105711;1280;22726;-87
2022/10/03 03:01:56;;;;;;;10.10;1.60;;;;;;;10.59;75.30;99034.14;105812;1280;26207;-78
2022/10/03 03:05:17;;;;;;;6.20;1.00;;;;;;;10.59;75.41;99038.48;105962;1280;22555;-83
2022/10/03 03:09:29;;;;;;;11.40;1.50;;;;;;;10.59;75.13;99034.36;105804;1280;25232;-83
2022/10/03 03:12:56;;;;;;;;;;;;;;;;;;;;;
2022/10/03 03:16:35;;;;;;;;;;;;;;;;;;;;;
2022/10/03 03:19:49;;;;;;;10.70;1.40;;;;;;;10.52;75.25;99039.47;105881;1280;22683;-87
2022/10/03 03:22:47;;;;;;;12.60;1.60;;;;;;;10.52;75.30;99038.38;105923;1280;22701;-85
2022/10/03 03:25:38;;;;;;;10.90;1.70;;;;;;;10.54;75.11;99039.69;105840;1280;23160;-86
2022/10/03 03:28:28;;;;;;;11.70;1.70;;;;;;;10.54;75.32;99039.98;105906;1273;25543;-83
2022/10/03 03:31:10;;;;;;;7.70;1.30;;;;;;;10.57;75.21;99040.05;105953;1273;24266;-84
2022/10/03 03:34:28;;;;;;;;;;;;;;;;;;;;;
2022/10/03 03:37:28;;;;;;;;;;;;;;;;;;;;;
2022/10/03 03:40:06;;;;;;;11.50;1.30;;;;;;;10.54;75.22;99044.66;106147;1274;22570;-82
2022/10/03 03:43:12;;;;;;;8.60;2.10;;;;;;;10.54;75.32;99044.64;106111;1274;23244;-81
2022/10/03 03:46:25;;;;;;;6.00;1.00;;;;;;;10.54;75.12;99046.21;106060;1274;23909;-81
2022/10/03 03:49:35;;;;;;;15.30;3.70;;;;;;;10.55;75.19;99040.32;106103;1274;22563;-84
2022/10/03 03:52:44;;;;;;;10.60;2.40;;;;;;;10.54;75.04;99043.08;106098;1274;24234;-84
2022/10/03 03:56:20;;;;;;;6.70;0.90;;;;;;;10.52;75.26;99052.42;106163;1274;25248;-82
2022/10/03 04:00:11;;;;;;;7.50;1.10;;;;;;;10.53;75.29;99055.08;106383;1274;22674;-83
2022/10/03 04:03:37;;;;;;;11.30;1.40;;;;;;;10.51;75.38;99050.02;106148;1274;25448;-82
2022/10/03 04:07:05;;;;;;;10.90;1.20;;;;;;;10.51;75.19;99052.02;106147;1274;24289;-83
2022/10/03 04:10:37;;;;;;;7.00;1.00;;;;;;;10.52;75.45;99052.14;106351;1274;25297;-83
2022/10/03 04:14:46;;;;;;;8.20;1.30;;;;;;;10.52;75.37;99056.72;105728;1280;22636;-85
2022/10/03 04:22:22;;;;;;;;;;;;;;;;;;;;;
2022/10/03 04:25:49;;;;;;;;;;;;;;;;;;;;;
2022/10/03 04:28:38;;;;;;;8.50;1.30;;;;;;;10.48;75.27;99054.33;104276;1294;22614;-87
2022/10/03 04:32:07;;;;;;;12.90;1.30;;;;;;;10.47;75.28;99055.31;104454;1293;25384;-81
2022/10/03 04:35:18;;;;;;;6.70;1.40;;;;;;;10.47;75.34;99049.27;104460;1291;25607;-87
2022/10/03 04:38:43;;;;;;;;;;;;;;;;;;;;;
2022/10/03 04:41:39;;;;;;;7.00;1.10;;;;;;;10.48;75.31;99056.14;104417;1294;22871;-87
2022/10/03 04:44:34;;;;;;;7.70;1.40;;;;;;;10.49;75.29;99054.64;104693;1288;25516;-81
2022/10/03 04:47:05;;;;;;;7.10;0.90;;;;;;;10.48;75.07;99057.17;105015;1287;22553;-83
2022/10/03 04:50:00;;;;;;;8.20;1.60;;;;;;;10.48;75.33;99060.73;105162;1287;22858;-81
2022/10/03 04:53:38;;;;;;;11.30;1.50;;;;;;;10.49;75.30;99057.67;105153;1287;24314;-82
2022/10/03 04:57:02;;;;;;;7.80;1.70;;;;;;;10.49;75.27;99059.42;105456;1285;23010;-84
2022/10/03 05:00:37;;;;;;;8.90;0.90;;;;;;;10.49;75.32;99061.54;105151;1285;22603;-82
2022/10/03 05:03:12;;;;;;;7.30;0.90;;;;;;;10.49;75.06;99063.70;105204;1287;22564;-83
2022/10/03 05:06:22;;;;;;;7.20;0.90;;;;;;;10.49;75.44;99059.95;105747;1280;25558;-82
2022/10/03 05:09:15;;;;;;;8.40;1.20;;;;;;;10.49;75.34;99067.77;105213;1287;22633;-82
2022/10/03 05:11:53;;;;;;;7.20;1.30;;;;;;;10.48;75.32;99067.83;105181;1288;22754;-85
2022/10/03 05:14:38;;;;;;;6.50;1.40;;;;;;;10.48;75.38;99065.58;105121;1288;25249;-87
2022/10/03 05:17:58;;;;;;;6.60;1.10;;;;;;;10.47;75.39;99067.94;104985;1288;22563;-84
2022/10/03 05:21:15;;;;;;;7.40;1.10;;;;;;;10.47;75.47;99074.20;105065;1287;22717;-81
2022/10/03 05:24:20;;;;;;;10.10;1.80;;;;;;;10.49;75.31;99078.44;105198;1287;25429;-82
2022/10/03 05:27:13;;;;;;;10.40;1.50;;;;;;;10.52;75.54;99075.63;105242;1283;22584;-83
2022/10/03 05:29:55;;;;;;;6.30;1.40;;;;;;;10.53;75.63;99076.23;105685;1281;24300;-86
2022/10/03 05:32:35;;;;;;;6.70;1.30;;;;;;;10.56;75.67;99075.34;105588;1282;22550;-84
2022/10/03 05:36:16;;;;;;;;;;;;;;;;;;;;;
2022/10/03 05:39:31;;;;;;;8.20;1.40;;;;;;;10.67;75.40;99074.23;105545;1282;24384;-86
2022/10/03 05:42:50;;;;;;;8.50;1.70;;;;;;;10.69;75.34;99076.17;105669;1282;25683;-81
2022/10/03 05:46:02;;;;;;;8.00;1.40;;;;;;;10.68;75.31;99078.90;106045;1274;25287;-82
2022/10/03 05:49:17;;;;;;;5.00;0.90;;;;;;;10.69;75.31;99074.72;106018;1274;22533;-80
2022/10/03 05:52:14;;;;;;;;;;;;;;;;;;;;;
2022/10/03 05:55:32;;;;;;;8.20;0.70;;;;;;;10.74;75.45;99084.55;105747;1281;24715;-80
2022/10/03 05:58:42;;;;;;;7.70;0.80;;;;;;;10.76;75.38;99088.33;105676;1281;22583;-82
2022/10/03 06:01:53;;;;;;;6.50;0.70;;;;;;;10.82;75.37;99090.36;105668;1282;22564;-85
2022/10/03 06:04:42;;;;;;;6.40;0.80;;;;;;;10.89;75.23;99099.33;105715;1280;25225;-82
2022/10/03 06:08:13;;;;;;;5.40;0.80;;;;;;;10.93;75.22;99098.06;105743;1281;24324;-82
2022/10/03 06:11:16;;;;;;;6.40;0.90;;;;;;;10.97;75.23;99107.24;105661;1281;24247;-83
2022/10/03 06:14:23;;;;;;;4.60;0.70;;;;;;;10.99;75.20;99106.54;105715;1281;22569;-81
2022/10/03 06:17:40;;;;;;;8.20;1.10;;;;;;;10.96;75.06;99113.92;105654;1281;25793;-79
2022/10/03 06:20:55;;;;;;;4.90;0.80;;;;;;;10.91;75.20;99114.27;105545;1283;22583;-83
2022/10/03 06:24:06;;;;;;;;;;;;;;;;;;;;;
2022/10/03 06:27:13;;;;;;;3.10;0.80;;;;;;;10.92;75.10;99118.51;106182;1273;22566;-82
2022/10/03 06:30:24;;;;;;;3.70;0.70;;;;;;;10.92;75.18;99116.55;105987;1274;25234;-82
2022/10/03 06:33:03;;;;;;;3.40;0.70;;;;;;;10.91;75.26;99121.77;106202;1273;24339;-81
2022/10/03 06:36:23;;;;;;;6.50;0.80;;;;;;;10.93;75.45;99121.45;106169;1273;22576;-85
2022/10/03 06:39:23;;;;;;;8.40;1.00;;;;;;;10.91;75.47;99128.16;105973;1273;24192;-81
2022/10/03 06:42:28;;;;;;;6.00;0.70;;;;;;;10.87;75.42;99125.96;106181;1273;22564;-81
2022/10/03 06:45:53;;;;;;;5.70;0.70;;;;;;;10.85;75.53;99135.73;106004;1274;22584;-81
2022/10/03 06:49:13;;;;;;;4.10;0.70;;;;;;;10.85;75.66;99137.71;106155;1273;24988;-86
2022/10/03 06:52:05;;;;;;;3.60;0.60;;;;;;;10.92;75.44;99141.50;106219;1273;25248;-86
2022/10/03 06:54:39;;;;;;;3.60;0.50;;;;;;;10.94;75.47;99135.97;106036;1274;25216;-79
2022/10/03 06:57:12;;;;;;;2.30;0.40;;;;;;;10.99;75.50;99135.80;106018;1273;22535;-85
2022/10/03 06:59:51;;;;;;;6.00;0.60;;;;;;;11.12;75.50;99131.48;105847;1273;22535;-86
2022/10/03 07:03:05;;;;;;;4.50;0.60;;;;;;;11.21;75.30;99138.13;106073;1274;24290;-80
2022/10/03 07:06:00;;;;;;;3.40;0.80;;;;;;;11.24;75.36;99140.39;106047;1274;25231;-79
2022/10/03 07:09:04;;;;;;;3.80;0.50;;;;;;;11.26;75.19;99142.20;105974;1274;24354;-85
2022/10/03 07:12:05;;;;;;;3.50;0.60;;;;;;;11.22;75.09;99147.10;106184;1273;22627;-86
2022/10/03 07:15:23;;;;;;;;;;;;;;;;;;;;;
2022/10/03 07:18:28;;;;;;;5.50;0.70;;;;;;;11.27;75.24;99140.33;106315;1274;24365;-77
2022/10/03 07:21:33;;;;;;;6.40;0.80;;;;;;;11.30;75.07;99143.00;102272;1274;25238;-80
2022/10/03 07:24:09;;;;;;;4.90;0.60;;;;;;;11.28;75.49;99149.01;106338;1274;25256;-80
2022/10/03 07:26:52;;;;;;;7.60;1.00;;;;;;;11.35;75.42;99146.15;106138;1274;22556;-81
2022/10/03 07:29:25;;;;;;;8.20;1.20;;;;;;;11.33;75.33;99150.92;105970;1274;22580;-81
2022/10/03 07:32:50;;;;;;;6.30;1.00;;;;;;;11.24;75.42;99153.75;105999;1274;25312;-80
2022/10/03 07:39:18;;;;;;;4.40;1.10;;;;;;;11.10;75.52;99156.21;106010;1274;22550;-81
2022/10/03 07:41:51;;;;;;;2.80;0.60;;;;;;;11.21;75.58;99155.91;106184;1273;22550;-87
2022/10/03 07:44:40;;;;;;;4.40;0.90;;;;;;;11.26;75.41;99156.64;106346;1274;22534;-86
2022/10/03 07:47:51;;;;;;;5.80;0.70;;;;;;;11.29;75.55;99157.29;106117;1274;25231;-81
2022/10/03 07:51:11;;;;;;;5.50;1.20;;;;;;;11.35;75.45;99165.19;106349;1274;25613;-80
2022/10/03 07:53:44;;;;;;;3.80;1.00;;;;;;;11.31;75.36;99167.27;106295;1274;24171;-78
2022/10/03 07:57:03;;;;;;;5.80;0.80;;;;;;;11.30;75.33;99170.59;106245;1274;22512;-87
2022/10/03 08:00:01;;;;;;;4.20;0.60;;;;;;;11.39;75.65;99173.11;106084;1274;22550;-83
2022/10/03 08:03:48;;;;;;;4.20;0.50;;;;;;;11.46;75.43;99171.00;106100;1274;24197;-83
2022/10/03 08:07:06;;;;;;;;;;;;;;;;;;;;;
2022/10/03 08:10:33;;;;;;;6.20;0.80;;;;;;;11.65;75.25;99174.05;105585;1280;22587;-81
2022/10/03 08:14:08;;;;;;;4.80;0.90;;;;;;;11.78;75.25;99170.27;105671;1280;22543;-81
2022/10/03 08:17:38;;;;;;;5.70;1.00;;;;;;;11.84;74.97;99176.75;105650;1280;22521;-79
2022/10/03 08:20:50;;;;;;;4.60;0.70;;;;;;;11.89;75.12;99179.96;105664;1280;22564;-82
2022/10/03 08:23:22;;;;;;;4.60;0.80;;;;;;;11.89;74.93;99182.48;105675;1279;25366;-81
2022/10/03 08:26:25;;;;;;;4.00;0.70;;;;;;;11.84;75.06;99182.48;105701;1280;22543;-87
2022/10/03 08:29:32;;;;;;;;;;;;;;;;;;;;;
2022/10/03 08:32:14;;;;;;;5.40;0.60;;;;;;;11.90;75.31;99178.08;105825;1280;23200;-77
2022/10/03 08:35:28;;;;;;;;;;;;;;;;;;;;;
2022/10/03 08:38:55;;;;;;;9.20;1.00;;;;;;;12.08;74.97;99190.44;105791;1280;22538;-85
2022/10/03 08:43:07;;;;;;;8.90;1.10;;;;;;;11.98;74.77;99191.95;105378;1284;22587;-82
2022/10/03 08:46:28;;;;;;;;;;;;;;;;;;;;;
2022/10/03 08:50:08;;;;;;;4.80;0.90;;;;;;;11.86;75.37;99189.11;105661;1280;22559;-83
2022/10/03 08:53:44;;;;;;;10.80;1.40;;;;;;;11.86;74.87;99190.38;105626;1279;25549;-78
2022/10/03 08:56:52;;;;;;;7.10;1.20;;;;;;;11.92;75.14;99192.02;105424;1280;22543;-79
2022/10/03 08:59:48;;;;;;;;;;;;;;;;;;;;;
2022/10/03 09:03:02;;;;;;;4.00;0.90;;;;;;;12.10;75.19;99191.16;105561;1279;25307;-79
2022/10/03 09:06:08;;;;;;;9.40;1.00;;;;;;;12.21;74.89;99187.67;105582;1279;23954;-78
2022/10/03 09:09:15;;;;;;;6.10;0.90;;;;;;;12.14;74.75;99193.17;105567;1281;22570;-81
2022/10/03 09:12:51;;;;;;;5.10;0.80;;;;;;;12.19;75.10;99198.56;105529;1281;22526;-78
2022/10/03 09:16:17;;;;;;;4.40;0.80;;;;;;;12.17;74.89;99208.11;105589;1279;22675;-79
2022/10/03 09:19:15;;;;;;;4.00;0.60;;;;;;;12.11;74.55;99212.34;106124;1274;22544;-77
2022/10/03 09:22:32;;;;;;;5.50;0.80;;;;;;;12.05;74.66;99209.78;105946;1274;23958;-78
2022/10/03 09:25:26;;;;;;;5.60;1.00;;;;;;;12.06;74.65;99223.46;105653;1280;23517;-77
2022/10/03 09:28:07;;;;;;;5.20;0.80;;;;;;;12.19;74.77;99219.26;105634;1278;22538;-83
2022/10/03 09:31:02;;;;;;;;;;;;;;;;;;;;;
2022/10/03 09:34:22;;;;;;;3.60;0.50;;;;;;;12.82;74.57;99214.17;105689;1278;24310;-80
2022/10/03 09:37:20;;;;;;;4.90;0.70;;;;;;;12.86;74.40;99223.52;104878;1285;22556;-82
2022/10/03 09:40:32;;;;;;;3.50;0.70;;;;;;;12.95;74.41;99222.60;105075;1285;24356;-77
2022/10/03 09:43:44;;;;;;;6.40;1.20;;;;;;;13.16;74.11;99220.37;104902;1285;22675;-78
2022/10/03 09:47:22;;;;;;;12.50;1.00;;;;;;;13.44;74.15;99226.73;104459;1290;24269;-79
2022/10/03 09:50:31;;;;;;;7.70;1.10;;;;;;;13.72;73.52;99227.45;103912;1297;24611;-84
2022/10/03 09:53:34;;;;;;;;;;;;;;;;;;;;;
2022/10/03 09:56:35;;;;;;;7.10;1.30;;;;;;;14.23;73.48;99235.97;103951;1297;24331;-83
2022/10/03 09:59:23;;;;;;;10.90;1.60;;;;;;;14.06;72.94;99235.97;103939;1300;24400;-78
2022/10/03 10:02:30;;;;;;;7.00;1.20;;;;;;;13.81;73.04;99235.52;104106;1294;24268;-85
2022/10/03 10:05:25;;;;;;;7.60;1.30;;;;;;;13.48;73.24;99231.63;104228;1294;25513;-80
2022/10/03 10:08:32;;;;;;;8.10;1.10;;;;;;;13.19;73.50;99244.11;104278;1294;22733;-81
2022/10/03 10:11:41;;;;;;;8.80;1.30;;;;;;;13.01;73.70;99252.57;104510;1287;22611;-78
2022/10/03 10:14:52;;;;;;;4.00;0.80;;;;;;;12.83;73.82;99250.16;105048;1287;24241;-80
2022/10/03 10:17:49;;;;;;;;;;;;;;;;;;;;;
2022/10/03 10:21:05;;;;;;;;;;;;;;;;;;;;;
2022/10/03 10:24:10;;;;;;;5.80;1.10;;;;;;;12.43;73.89;99255.27;105331;1285;22585;-89
2022/10/03 10:27:43;;;;;;;5.00;1.10;;;;;;;12.40;73.87;99258.02;105351;1280;22534;-82
2022/10/03 10:30:45;;;;;;;5.30;0.80;;;;;;;12.35;74.08;99262.81;105783;1280;26475;-82
2022/10/03 10:34:17;;;;;;;8.00;1.10;;;;;;;12.34;74.01;99259.35;105720;1280;24414;-83
2022/10/03 10:37:55;;;;;;;;;;;;;;;;;;;;;
2022/10/03 10:41:43;;;;;;;3.60;1.00;;;;;;;12.37;74.44;99259.27;105846;1280;24240;-85
2022/10/03 10:45:44;;;;;;;4.40;0.80;;;;;;;12.43;74.32;99262.06;105356;1285;25375;-81
2022/10/03 10:49:04;;;;;;;6.10;1.30;;;;;;;12.17;74.18;99268.81;105099;1286;22553;-82
2022/10/03 10:52:15;;;;;;;6.50;1.30;;;;;;;12.12;74.50;99271.87;105320;1285;25584;-80
2022/10/03 10:55:02;;;;;;;6.20;1.00;;;;;;;12.11;74.37;99272.33;105081;1286;22596;-82
2022/10/03 10:57:38;;;;;;;13.80;2.90;;;;;;;12.08;74.40;99271.47;105297;1285;25257;-83
2022/10/03 11:00:20;;;;;;;8.80;1.70;;;;;;;12.08;74.79;99269.31;105332;1284;22547;-82
2022/10/03 11:03:29;;;;;;;7.70;1.60;;;;;;;12.03;74.51;99270.23;105472;1281;24351;-80
2022/10/03 11:07:11;;;;;;;8.80;1.80;;;;;;;12.00;74.65;99270.33;105662;1281;22525;-87
2022/10/03 11:10:01;;;;;;;9.60;1.60;;;;;;;12.10;74.71;99259.17;105702;1281;22571;-80
2022/10/03 11:12:50;;;;;;;6.90;1.30;;;;;;;12.30;74.96;99259.82;105670;1281;22588;-83
2022/10/03 11:16:02;;;;;;;7.20;1.40;;;;;;;12.58;74.79;99259.10;105668;1282;23282;-85
2022/10/03 11:19:23;;;;;;;;;;;;;;;;;;;;;
2022/10/03 11:22:40;;;;;;;6.30;1.00;;;;;;;13.00;74.06;99254.20;105656;1281;22573;-83
2022/10/03 11:25:52;;;;;;;3.60;0.70;;;;;;;13.17;74.28;99257.13;105648;1282;22551;-83
2022/10/03 11:28:47;;;;;;;3.90;0.80;;;;;;;13.31;73.96;99256.44;105655;1281;22705;-85
2022/10/03 11:31:34;;;;;;;6.60;0.70;;;;;;;13.59;73.71;99256.50;105675;1281;24221;-86
2022/10/03 11:34:40;;;;;;;6.60;1.50;;;;;;;13.61;73.72;99257.21;105617;1282;25508;-78
2022/10/03 11:37:54;;;;;;;5.80;0.90;;;;;;;13.58;73.31;99252.46;105649;1281;22542;-85
2022/10/03 11:41:31;;;;;;;5.60;0.90;;;;;;;13.44;73.55;99259.69;105606;1282;25508;-80
2022/10/03 11:44:54;;;;;;;6.40;1.50;;;;;;;13.37;73.19;99263.09;105662;1281;22553;-86
2022/10/03 11:48:17;;;;;;;4.20;0.70;;;;;;;13.46;73.82;99261.96;105657;1281;22572;-83
2022/10/03 11:50:49;;;;;;;5.20;1.00;;;;;;;13.58;73.78;99265.86;105958;1274;22619;-84
2022/10/03 11:53:39;;;;;;;7.30;1.00;;;;;;;13.71;73.66;99267.27;105938;1276;25437;-80
2022/10/03 11:57:04;;;;;;;;;;;;;;;;;;;;;
2022/10/03 11:59:39;;;;;;;9.10;1.70;;;;;;;13.71;73.53;99269.05;105978;1275;25490;-78
2022/10/03 12:03:22;;;;;;;5.50;1.10;;;;;;;13.82;73.27;99269.08;106152;1274;23206;-79
2022/10/03 12:09:16;;;;;;;7.30;1.00;;;;;;;13.64;72.89;99267.66;106226;1274;24254;-80
2022/10/03 12:11:55;;;;;;;5.90;1.10;;;;;;;13.62;73.35;99273.56;106471;1273;22560;-80
2022/10/03 12:14:48;;;;;;;5.70;1.00;;;;;;;13.59;72.90;99272.76;106420;1273;25234;-81
2022/10/03 12:17:28;;;;;;;6.50;1.00;;;;;;;13.60;73.13;99275.02;106076;1271;25346;-78
2022/10/03 12:20:23;;;;;;;8.00;1.70;;;;;;;13.53;72.95;99276.64;106320;1274;22801;-80
2022/10/03 12:23:06;;;;;;;7.90;1.60;;;;;;;13.37;72.82;99275.61;106134;1274;22534;-81
2022/10/03 12:26:05;;;;;;;3.70;1.10;;;;;;;13.27;73.00;99281.41;106122;1274;22560;-81
2022/10/03 12:28:45;;;;;;;4.20;1.00;;;;;;;13.28;73.24;99279.71;106301;1274;22567;-76
2022/10/03 12:31:59;;;;;;;;;;;;;;;;;;;;;
2022/10/03 12:34:38;;;;;;;8.20;0.90;;;;;;;13.43;72.67;99276.89;106236;1274;25792;-78
2022/10/03 12:38:32;;;;;;;5.80;1.00;;;;;;;13.39;72.93;99282.04;106141;1277;24275;-78
2022/10/03 12:40:45;;;;;;;4.80;0.80;;;;;;;13.45;73.01;99287.98;106114;1274;23906;-80
2022/10/03 12:43:45;;;;;;;5.10;1.00;;;;;;;13.49;72.90;99291.95;106180;1274;24361;-78
2022/10/03 12:46:39;;;;;;;7.00;1.10;;;;;;;13.54;73.05;99289.48;106233;1274;22557;-80
2022/10/03 12:49:30;;;;;;;7.60;1.30;;;;;;;13.59;72.79;99295.12;106103;1274;24285;-84
2022/10/03 12:52:29;;;;;;;7.70;1.60;;;;;;;13.46;72.70;99297.25;106082;1274;22532;-84
2022/10/03 12:55:41;;;;;;;7.30;1.20;;;;;;;13.34;72.78;99302.70;106383;1274;24263;-80
2022/10/03 12:58:53;;;;;;;9.10;1.40;;;;;;;13.31;72.78;99303.66;106259;1274;22528;-79
2022/10/03 13:01:43;;;;;;;7.30;1.20;;;;;;;13.30;72.63;99301.02;106187;1274;25488;-85
2022/10/03 13:04:36;;;;;;;8.80;1.60;;;;;;;13.27;73.00;99300.38;106082;1273;22543;-79
2022/10/03 13:07:31;;;;;;;7.40;1.50;;;;;;;13.26;72.61;99293.99;106321;1271;22570;-79
2022/10/03 13:10:04;;;;;;;8.00;1.10;;;;;;;13.19;72.76;99296.99;106042;1274;25304;-78
2022/10/03 13:12:45;;;;;;;6.00;1.10;;;;;;;13.19;72.89;99298.30;106174;1274;22767;-80
2022/10/03 13:15:46;;;;;;;6.20;1.20;;;;;;;13.21;72.94;99293.89;106076;1274;22557;-79
2022/10/03 13:18:41;;;;;;;8.50;1.30;;;;;;;13.27;72.97;99293.41;106270;1274;23155;-79
2022/10/03 13:21:51;;;;;;;8.80;1.70;;;;;;;13.36;72.49;99288.94;106085;1274;22717;-85
2022/10/03 13:24:41;;;;;;;7.10;1.50;;;;;;;13.44;72.74;99284.01;105973;1274;22805;-87
2022/10/03 13:27:28;;;;;;;7.30;1.40;;;;;;;13.51;72.30;99287.19;106037;1274;24398;-83
2022/10/03 13:30:44;;;;;;;9.30;1.30;;;;;;;13.48;72.23;99286.84;106262;1271;22667;-83
2022/10/03 13:33:27;;;;;;;5.20;0.90;;;;;;;13.53;72.63;99293.59;106405;1271;26519;-79
2022/10/03 13:36:07;;;;;;;7.10;1.40;;;;;;;13.50;72.10;99298.86;106481;1271;24396;-80
2022/10/03 13:39:06;;;;;;;6.90;1.20;;;;;;;13.42;72.19;99294.36;106306;1274;22580;-80
2022/10/03 13:42:10;;;;;;;8.50;1.30;;;;;;;13.36;72.10;99291.80;106309;1274;22612;-78
2022/10/03 13:44:53;;;;;;;8.00;1.50;;;;;;;13.33;72.29;99290.98;106300;1271;24277;-83
2022/10/03 13:47:50;;;;;;;5.70;1.10;;;;;;;13.35;72.61;99290.99;106149;1274;22590;-86
2022/10/03 13:50:31;;;;;;;12.10;1.50;;;;;;;13.44;72.27;99289.52;106465;1271;22628;-83
2022/10/03 13:53:25;;;;;;;7.50;1.00;;;;;;;13.55;72.35;99290.26;106171;1274;22543;-78
2022/10/03 13:56:10;;;;;;;8.50;1.30;;;;;;;13.65;71.92;99290.89;105966;1277;24268;-81
2022/10/03 13:59:02;;;;;;;5.60;1.30;;;;;;;13.66;72.19;99291.73;106121;1273;24671;-80
2022/10/03 14:02:16;;;;;;;4.00;0.90;;;;;;;13.78;71.73;99296.95;106115;1273;22680;-80
2022/10/03 14:05:17;;;;;;;7.80;1.20;;;;;;;13.87;71.95;99293.59;106096;1276;25578;-78
2022/10/03 14:08:36;;;;;;;7.00;1.00;;;;;;;14.01;71.87;99286.16;105980;1277;24419;-82
2022/10/03 14:11:13;;;;;;;8.70;1.20;;;;;;;14.04;71.79;99290.70;106108;1274;22540;-80
2022/10/03 14:14:26;;;;;;;9.50;1.30;;;;;;;14.00;71.74;99295.88;106294;1274;23913;-79
2022/10/03 14:17:12;;;;;;;9.40;1.40;;;;;;;13.95;71.73;99299.16;106254;1275;23311;-78
2022/10/03 14:20:06;;;;;;;8.80;1.30;;;;;;;13.90;71.51;99298.69;105917;1277;25441;-80
2022/10/03 14:23:06;;;;;;;8.60;1.20;;;;;;;13.92;71.76;99302.40;105901;1277;22622;-85
2022/10/03 14:25:56;;;;;;;9.10;1.30;;;;;;;13.86;71.48;99299.04;106147;1274;22570;-79
2022/10/03 14:28:30;;;;;;;8.10;1.40;;;;;;;13.78;71.55;99300.55;106283;1274;26010;-80
2022/10/03 14:31:14;;;;;;;12.30;3.40;;;;;;;13.84;71.91;99303.88;106231;1275;25370;-80
2022/10/03 14:33:52;;;;;;;10.20;1.60;;;;;;;13.98;71.80;99309.13;106119;1273;22564;-78
2022/10/03 14:36:38;;;;;;;7.00;1.40;;;;;;;14.00;71.46;99310.01;105966;1277;22548;-80
2022/10/03 14:39:39;;;;;;;12.20;1.40;;;;;;;13.86;71.21;99300.23;106008;1278;22632;-80
2022/10/03 14:42:06;;;;;;;10.30;1.90;;;;;;;13.66;71.45;99307.45;105931;1275;25238;-77
2022/10/03 14:44:39;;;;;;;11.10;1.30;;;;;;;13.46;71.29;99308.87;105797;1277;22593;-78
2022/10/03 14:47:21;;;;;;;7.80;1.40;;;;;;;13.31;71.20;99309.91;105894;1276;25232;-80
2022/10/03 14:49:59;;;;;;;8.30;1.60;;;;;;;13.17;71.45;99314.15;106104;1275;22623;-84
2022/10/03 14:52:50;;;;;;;10.40;1.60;;;;;;;13.09;71.49;99320.35;106159;1274;23956;-79
2022/10/03 14:55:27;;;;;;;9.70;1.60;;;;;;;13.08;71.56;99317.02;106058;1278;22584;-84
2022/10/03 14:58:31;;;;;;;11.00;1.60;;;;;;;13.16;71.55;99314.45;106158;1274;25394;-79
2022/10/03 15:01:06;;;;;;;7.80;1.20;;;;;;;13.21;71.49;99314.25;106126;1274;22559;-79
2022/10/03 15:03:44;;;;;;;11.10;1.30;;;;;;;13.21;71.13;99308.20;105921;1275;22544;-84
2022/10/03 15:06:14;;;;;;;7.90;1.50;;;;;;;13.16;71.18;99308.68;106038;1275;22557;-81
2022/10/03 15:09:14;;;;;;;8.90;1.40;;;;;;;13.12;71.17;99312.77;106346;1274;22561;-82
2022/10/03 15:11:54;;;;;;;8.20;1.60;;;;;;;13.06;71.12;99307.21;106202;1274;24223;-80
2022/10/03 15:14:23;;;;;;;8.00;1.70;;;;;;;12.99;71.20;99314.34;106278;1274;22538;-80
2022/10/03 15:16:55;;;;;;;11.00;1.70;;;;;;;12.93;71.15;99320.47;106226;1274;22677;-79
2022/10/03 15:20:25;;;;;;;9.60;1.50;;;;;;;12.87;71.16;99323.50;106142;1274;22728;-80
2022/10/03 15:22:57;;;;;;;7.30;1.20;;;;;;;12.80;71.18;99324.05;105675;1283;22608;-87
2022/10/03 15:25:40;;;;;;;8.50;2.20;;;;;;;12.75;71.26;99324.79;105774;1281;22542;-81
2022/10/03 15:28:50;;;;;;;10.20;1.90;;;;;;;12.72;71.32;99325.52;105855;1278;24405;-80
2022/10/03 15:31:35;;;;;;;10.10;1.80;;;;;;;12.68;71.30;99327.83;105811;1277;25506;-81